createdAt,value
2022-09-01T00:02:12.128Z,572.6
2022-09-01T00:03:14.354Z,572.5
2022-09-01T00:04:17.206Z,572.9
2022-09-01T00:05:19.700Z,572.6
2022-09-01T00:06:21.914Z,572.7
2022-09-01T00:07:24.383Z,572.4
2022-09-01T00:08:26.862Z,572.4
2022-09-01T00:09:29.329Z,572.1
2022-09-01T00:10:31.803Z,572
2022-09-01T00:11:33.724Z,572.1
2022-09-01T00:12:35.664Z,572.1
2022-09-01T00:13:38.132Z,571.8
2022-09-01T00:15:45.768Z,572
2022-09-01T00:17:53.254Z,572.1
2022-09-01T00:18:55.451Z,571.8
2022-09-01T00:19:57.936Z,572.1
2022-09-01T00:21:00.412Z,572.2
2022-09-01T00:22:02.623Z,572.3
2022-09-01T00:23:05.103Z,572.4
2022-09-01T00:24:07.312Z,572.3
2022-09-01T00:25:09.776Z,572.2
2022-09-01T00:26:11.991Z,572.6
2022-09-01T00:27:14.672Z,572.8
2022-09-01T00:28:17.378Z,573.1
2022-09-01T00:29:19.571Z,572.9
2022-09-01T00:30:21.781Z,572.7
2022-09-01T00:31:24.375Z,572.8
2022-09-01T00:32:26.609Z,572.7
2022-09-01T00:33:28.801Z,573.1
2022-09-01T00:34:30.983Z,572.9
2022-09-01T00:36:38.179Z,573.2
2022-09-01T00:37:40.643Z,572.9
2022-09-01T00:38:42.269Z,572.8
2022-09-01T00:39:44.178Z,572.9
2022-09-01T00:40:46.950Z,572.5
2022-09-01T00:41:49.486Z,573.3
2022-09-01T00:42:51.709Z,573.3
2022-09-01T00:43:54.195Z,573.2
2022-09-01T00:44:57.053Z,573.5
2022-09-01T00:46:01.962Z,573.1
2022-09-01T00:47:06.450Z,573.1
2022-09-01T00:48:08.567Z,573.2
2022-09-01T00:49:11.032Z,573.3
2022-09-01T00:50:13.518Z,573
2022-09-01T00:51:15.731Z,573.4
2022-09-01T00:52:18.223Z,573.5
2022-09-01T00:53:20.699Z,573.5
2022-09-01T00:54:22.657Z,573.6
2022-09-01T00:55:25.129Z,573.6
2022-09-01T00:56:27.045Z,573.7
2022-09-01T00:57:29.239Z,573.3
2022-09-01T00:58:31.717Z,573.2
2022-09-01T00:59:33.640Z,573.5
2022-09-01T01:00:37.887Z,573.3
2022-09-01T01:01:47.749Z,573.5
2022-09-01T01:02:55.022Z,573.4
2022-09-01T01:03:57.518Z,573.3
2022-09-01T01:04:59.714Z,573.2
2022-09-01T01:06:01.631Z,573.6
2022-09-01T01:07:04.139Z,573.2
2022-09-01T01:08:06.606Z,573.3
2022-09-01T01:09:09.082Z,573.3
2022-09-01T01:10:11.567Z,573
2022-09-01T01:11:13.749Z,573.3
2022-09-01T01:12:16.237Z,573.1
2022-09-01T01:13:18.727Z,573.4
2022-09-01T01:14:20.925Z,573.1
2022-09-01T01:15:23.400Z,573.4
2022-09-01T01:16:25.815Z,573.5
2022-09-01T01:17:28.089Z,573.6
2022-09-01T01:18:30.560Z,573.5
2022-09-01T01:20:38.043Z,573.4
2022-09-01T01:21:39.952Z,573.6
2022-09-01T01:22:42.435Z,573.5
2022-09-01T01:23:44.900Z,573.6
2022-09-01T01:24:47.387Z,573.8
2022-09-01T01:25:49.866Z,574
2022-09-01T01:26:52.353Z,574
2022-09-01T01:27:54.838Z,574.3
2022-09-01T01:28:58.052Z,574.3
2022-09-01T01:30:00.522Z,574.1
2022-09-01T01:31:03.391Z,574.4
2022-09-01T01:32:05.579Z,574.7
2022-09-01T01:33:12.057Z,574.5
2022-09-01T01:34:14.590Z,574.5
2022-09-01T01:35:16.824Z,574.7
2022-09-01T01:36:19.308Z,574.6
2022-09-01T01:37:21.790Z,574.5
2022-09-01T01:38:24.707Z,574.4
2022-09-01T01:39:27.182Z,574.5
2022-09-01T01:40:29.985Z,574.4
2022-09-01T01:41:32.505Z,574.9
2022-09-01T01:42:34.970Z,574.6
2022-09-01T01:43:37.187Z,574.5
2022-09-01T01:44:39.656Z,574.6
2022-09-01T01:45:41.756Z,574.9
2022-09-01T01:46:43.956Z,574.7
2022-09-01T01:47:46.154Z,575
2022-09-01T01:48:48.623Z,574.9
2022-09-01T01:49:50.837Z,574.8
2022-09-01T01:50:52.485Z,574.9
2022-09-01T01:51:54.971Z,574.9
2022-09-01T01:54:02.442Z,574.6
2022-09-01T01:56:09.637Z,574.7
2022-09-01T01:57:12.118Z,574.9
2022-09-01T01:58:14.807Z,574.9
2022-09-01T01:59:17.002Z,574.9
2022-09-01T02:01:24.477Z,574.4
2022-09-01T02:02:27.297Z,574.9
2022-09-01T02:03:29.791Z,574.5
2022-09-01T02:04:32.270Z,574.4
2022-09-01T02:05:34.480Z,574.7
2022-09-01T02:06:36.419Z,574.7
2022-09-01T02:07:38.623Z,574.9
2022-09-01T02:08:41.082Z,574.7
2022-09-01T02:09:43.564Z,575
2022-09-01T02:10:46.030Z,574.7
2022-09-01T02:11:48.219Z,574.8
2022-09-01T02:12:50.112Z,574.5
2022-09-01T02:13:52.608Z,574.8
2022-09-01T02:14:54.800Z,574.7
2022-09-01T02:15:57.285Z,574.8
2022-09-01T02:17:00.124Z,574.4
2022-09-01T02:19:07.629Z,574.9
2022-09-01T02:20:09.815Z,575
2022-09-01T02:22:17.044Z,575
2022-09-01T02:23:19.234Z,575.1
2022-09-01T02:24:21.416Z,574.7
2022-09-01T02:25:23.621Z,575
2022-09-01T02:26:26.103Z,574.8
2022-09-01T02:27:28.044Z,574.6
2022-09-01T02:28:30.523Z,574.8
2022-09-01T02:30:37.989Z,575.3
2022-09-01T02:31:40.218Z,575.2
2022-09-01T02:32:42.422Z,574.8
2022-09-01T02:33:44.612Z,574.8
2022-09-01T02:34:47.103Z,574.8
2022-09-01T02:35:49.563Z,574.8
2022-09-01T02:36:52.032Z,575.1
2022-09-01T02:37:54.500Z,575.2
2022-09-01T02:39:00.116Z,575.4
2022-09-01T02:40:02.745Z,575.2
2022-09-01T02:41:04.938Z,575.3
2022-09-01T02:42:07.414Z,575.4
2022-09-01T02:43:09.612Z,575.3
2022-09-01T02:44:12.093Z,575
2022-09-01T02:45:13.993Z,575.2
2022-09-01T02:46:17.743Z,574.7
2022-09-01T02:47:20.859Z,574.7
2022-09-01T02:48:23.500Z,574.7
2022-09-01T02:49:26.146Z,574.4
2022-09-01T02:50:28.630Z,573.8
2022-09-01T02:51:31.151Z,574.3
2022-09-01T02:52:33.384Z,574.3
2022-09-01T02:53:35.876Z,574.3
2022-09-01T02:54:38.408Z,574.5
2022-09-01T02:55:40.882Z,574.4
2022-09-01T02:56:43.349Z,574.5
2022-09-01T02:57:46.820Z,574.5
2022-09-01T02:58:49.706Z,574.5
2022-09-01T02:59:52.183Z,574.7
2022-09-01T03:00:54.996Z,574.7
2022-09-01T03:01:57.234Z,574.6
2022-09-01T03:02:59.704Z,574.7
2022-09-01T03:04:02.186Z,574.8
2022-09-01T03:05:04.885Z,574.8
2022-09-01T03:06:07.142Z,574.2
2022-09-01T03:07:09.337Z,574.5
2022-09-01T03:08:11.544Z,575
2022-09-01T03:09:14.015Z,574.9
2022-09-01T03:10:16.488Z,575
2022-09-01T03:11:18.660Z,575.2
2022-09-01T03:12:21.137Z,575.4
2022-09-01T03:13:23.606Z,575.6
2022-09-01T03:14:26.102Z,575.5
2022-09-01T03:15:28.303Z,575.6
2022-09-01T03:16:30.925Z,575.6
2022-09-01T03:17:33.140Z,575.7
2022-09-01T03:18:35.609Z,575.5
2022-09-01T03:19:37.807Z,576.1
2022-09-01T03:20:40.276Z,575.6
2022-09-01T03:21:42.469Z,575.9
2022-09-01T03:22:44.952Z,576
2022-09-01T03:23:47.165Z,575.9
2022-09-01T03:24:49.625Z,576
2022-09-01T03:25:52.289Z,575.7
2022-09-01T03:26:54.484Z,575.7
2022-09-01T03:27:56.963Z,575.6
2022-09-01T03:28:59.427Z,575.4
2022-09-01T03:30:01.904Z,575.6
2022-09-01T03:31:04.104Z,575.6
2022-09-01T03:32:06.714Z,576.1
2022-09-01T03:33:08.946Z,575.9
2022-09-01T03:34:11.421Z,576
2022-09-01T03:35:13.883Z,575.9
2022-09-01T03:36:17.377Z,575.9
2022-09-01T03:37:19.892Z,576.1
2022-09-01T03:38:22.853Z,575.9
2022-09-01T03:39:25.321Z,575.9
2022-09-01T03:40:28.196Z,576.2
2022-09-01T03:41:30.712Z,576.2
2022-09-01T03:42:33.179Z,576.2
2022-09-01T03:44:40.442Z,576.2
2022-09-01T03:45:42.972Z,576.6
2022-09-01T03:46:45.392Z,576.8
2022-09-01T03:47:47.705Z,576.8
2022-09-01T03:48:49.936Z,576.7
2022-09-01T03:49:52.462Z,576.9
2022-09-01T03:50:54.681Z,576.9
2022-09-01T03:51:57.172Z,577.3
2022-09-01T03:52:59.651Z,577.3
2022-09-01T03:54:02.154Z,576.7
2022-09-01T03:55:04.634Z,577.3
2022-09-01T03:56:06.845Z,577
2022-09-01T03:57:09.047Z,577.3
2022-09-01T03:58:12.135Z,577.6
2022-09-01T03:59:14.758Z,577.4
2022-09-01T04:00:19.421Z,577.7
2022-09-01T04:01:22.365Z,577.7
2022-09-01T04:02:27.430Z,578
2022-09-01T04:03:33.260Z,578
2022-09-01T04:04:35.525Z,578.2
2022-09-01T04:05:37.725Z,578.3
2022-09-01T04:06:39.935Z,578.8
2022-09-01T04:07:42.410Z,578.3
2022-09-01T04:08:44.604Z,578.4
2022-09-01T04:09:46.784Z,578.1
2022-09-01T04:11:54.258Z,578.6
2022-09-01T04:12:56.731Z,578.6
2022-09-01T04:13:59.216Z,578.2
2022-09-01T04:15:01.694Z,578.4
2022-09-01T04:16:04.129Z,578.3
2022-09-01T04:17:06.619Z,578.4
2022-09-01T04:18:09.091Z,578.1
2022-09-01T04:19:11.569Z,578.5
2022-09-01T04:20:14.055Z,578.3
2022-09-01T04:21:16.261Z,578.1
2022-09-01T04:22:18.760Z,578.1
2022-09-01T04:23:21.226Z,577.9
2022-09-01T04:24:23.703Z,577.9
2022-09-01T04:25:25.620Z,578
2022-09-01T04:26:28.117Z,578.1
2022-09-01T04:27:30.601Z,577.8
2022-09-01T04:28:32.803Z,577.8
2022-09-01T04:29:35.001Z,577.9
2022-09-01T04:30:37.475Z,577.8
2022-09-01T04:31:40.366Z,577.6
2022-09-01T04:32:42.867Z,578
2022-09-01T04:33:45.350Z,577.8
2022-09-01T04:34:47.552Z,577.9
2022-09-01T04:35:49.743Z,577.8
2022-09-01T04:37:56.932Z,578.2
2022-09-01T04:38:59.150Z,578.2
2022-09-01T04:40:00.800Z,578.2
2022-09-01T04:41:02.988Z,578.1
2022-09-01T04:42:05.472Z,577.9
2022-09-01T04:43:07.958Z,578
2022-09-01T04:44:10.437Z,577.6
2022-09-01T04:45:14.628Z,577.8
2022-09-01T04:47:25.025Z,578
2022-09-01T04:48:30.837Z,577.6
2022-09-01T04:49:33.318Z,578.2
2022-09-01T04:50:35.236Z,577.7
2022-09-01T04:51:37.723Z,577.6
2022-09-01T04:52:40.197Z,577.6
2022-09-01T04:53:42.682Z,577.1
2022-09-01T04:54:44.878Z,577.4
2022-09-01T04:56:53.007Z,577.2
2022-09-01T04:57:55.481Z,577.2
2022-09-01T04:58:57.954Z,577.1
2022-09-01T04:59:59.869Z,577.4
2022-09-01T05:01:02.166Z,577.1
2022-09-01T05:02:04.955Z,577.2
2022-09-01T05:03:07.169Z,577.8
2022-09-01T05:04:09.636Z,577.3
2022-09-01T05:05:11.539Z,577.3
2022-09-01T05:06:14.026Z,577.4
2022-09-01T05:07:16.225Z,577.1
2022-09-01T05:09:23.702Z,577.4
2022-09-01T05:10:26.175Z,577.4
2022-09-01T05:11:28.659Z,577.3
2022-09-01T05:12:31.120Z,577.6
2022-09-01T05:13:33.631Z,577.4
2022-09-01T05:14:36.094Z,577.7
2022-09-01T05:15:38.334Z,577.5
2022-09-01T05:16:41.119Z,577
2022-09-01T05:17:43.646Z,576.9
2022-09-01T05:18:46.114Z,577.3
2022-09-01T05:19:48.614Z,577.2
2022-09-01T05:20:51.094Z,577.1
2022-09-01T05:21:53.607Z,577.1
2022-09-01T05:22:56.117Z,577
2022-09-01T05:23:58.604Z,576.9
2022-09-01T05:25:01.072Z,577.2
2022-09-01T05:26:04.374Z,577
2022-09-01T05:27:06.879Z,576.8
2022-09-01T05:28:09.368Z,577.1
2022-09-01T05:29:11.900Z,576.7
2022-09-01T05:30:14.112Z,576.8
2022-09-01T05:31:16.873Z,577.2
2022-09-01T05:32:19.118Z,576.7
2022-09-01T05:33:23.547Z,576.9
2022-09-01T05:34:25.739Z,577.1
2022-09-01T05:36:33.225Z,577.3
2022-09-01T05:37:35.693Z,577.1
2022-09-01T05:38:37.630Z,577.1
2022-09-01T05:39:40.184Z,577.5
2022-09-01T05:40:43.178Z,577.6
2022-09-01T05:41:45.712Z,577.4
2022-09-01T05:42:47.641Z,577.1
2022-09-01T05:43:50.153Z,577.1
2022-09-01T05:44:54.511Z,577.5
2022-09-01T05:47:02.425Z,577.2
2022-09-01T05:48:04.674Z,577.2
2022-09-01T05:49:07.172Z,577.2
2022-09-01T05:52:20.760Z,577
2022-09-01T05:54:29.794Z,576.9
2022-09-01T05:55:32.212Z,576.8
2022-09-01T05:56:34.690Z,576.8
2022-09-01T05:57:37.125Z,576.7
2022-09-01T05:59:44.360Z,576.9
2022-09-01T06:00:46.576Z,576.8
2022-09-01T06:02:54.698Z,577.1
2022-09-01T06:03:56.699Z,576.8
2022-09-01T06:04:59.498Z,576.7
2022-09-01T06:06:01.716Z,576.7
2022-09-01T06:08:09.221Z,576.8
2022-09-01T06:09:11.712Z,576.9
2022-09-01T06:10:14.204Z,576.7
2022-09-01T06:11:16.402Z,576.5
2022-09-01T06:12:20.138Z,576.9
2022-09-01T06:14:28.012Z,576.8
2022-09-01T06:15:30.240Z,576.6
2022-09-01T06:16:33.296Z,576.4
2022-09-01T06:18:40.839Z,576.6
2022-09-01T06:19:43.314Z,576.5
2022-09-01T06:20:45.803Z,576.8
2022-09-01T06:21:48.272Z,576.6
2022-09-01T06:22:50.762Z,576.9
2022-09-01T06:23:53.256Z,576.4
2022-09-01T06:25:59.915Z,576.6
2022-09-01T06:27:02.542Z,576.6
2022-09-01T06:28:05.026Z,576.6
2022-09-01T06:29:07.351Z,576.2
2022-09-01T06:30:09.275Z,576.3
2022-09-01T06:31:11.711Z,576.3
2022-09-01T06:32:13.931Z,576
2022-09-01T06:33:16.577Z,576.2
2022-09-01T06:34:18.829Z,576
2022-09-01T06:35:20.736Z,576.2
2022-09-01T06:36:22.698Z,576.4
2022-09-01T06:37:25.518Z,576.4
2022-09-01T06:38:27.730Z,576.4
2022-09-01T06:39:29.925Z,576.2
2022-09-01T06:40:32.359Z,576.2
2022-09-01T06:41:34.641Z,576.1
2022-09-01T06:42:37.226Z,576.4
2022-09-01T06:43:39.709Z,575.9
2022-09-01T06:44:43.200Z,576.1
2022-09-01T06:45:45.694Z,575.8
2022-09-01T06:46:48.679Z,576
2022-09-01T06:48:58.102Z,576.1
2022-09-01T06:50:00.447Z,575.7
2022-09-01T06:52:10.330Z,575.5
2022-09-01T06:54:19.036Z,575.6
2022-09-01T06:55:24.006Z,575.8
2022-09-01T06:58:37.445Z,575.3
2022-09-01T06:59:39.134Z,575.3
2022-09-01T07:00:42.083Z,575.5
2022-09-01T07:01:45.382Z,575.3
2022-09-01T07:02:48.243Z,574.7
2022-09-01T07:03:50.847Z,574.5
2022-09-01T07:04:53.441Z,574.9
2022-09-01T07:18:27.879Z,573.6
2022-09-01T07:20:36.996Z,573.3
2022-09-01T07:26:05.927Z,572.9
2022-09-01T07:27:12.227Z,573
2022-09-01T07:29:20.262Z,572.8
2022-09-01T07:43:55.593Z,573.1
2022-09-01T07:52:33.707Z,572.5
2022-09-01T07:53:37.520Z,572.1
2022-09-01T07:54:40.003Z,572.5
2022-09-01T07:56:48.299Z,572.2
2022-09-01T07:57:50.474Z,572.2
2022-09-01T07:58:52.672Z,571.7
2022-09-01T07:59:54.874Z,572
2022-09-01T08:00:57.363Z,571.9
2022-09-01T08:01:59.591Z,571.7
2022-09-01T08:03:02.205Z,572
2022-09-01T08:04:04.154Z,571.7
2022-09-01T08:05:06.657Z,571.8
2022-09-01T08:06:08.595Z,571.8
2022-09-01T08:10:25.540Z,572.3
2022-09-01T08:12:32.915Z,572.3
2022-09-01T08:14:40.634Z,572.1
2022-09-01T08:17:54.065Z,571.9
2022-09-01T08:18:56.724Z,571.1
2022-09-01T08:19:58.138Z,570.7
2022-09-01T08:21:00.072Z,571.2
2022-09-01T08:22:02.002Z,571
2022-09-01T08:23:04.216Z,571
2022-09-01T08:24:06.426Z,570.7
2022-09-01T08:25:08.915Z,570.9
2022-09-01T08:26:11.419Z,570.8
2022-09-01T08:27:15.143Z,570.4
2022-09-01T08:29:24.494Z,571
2022-09-01T08:30:28.297Z,570.7
2022-09-01T08:31:32.859Z,571.1
2022-09-01T08:32:35.070Z,570.5
2022-09-01T08:33:37.277Z,570.3
2022-09-01T08:34:39.758Z,570.5
2022-09-01T08:35:42.239Z,570.4
2022-09-01T08:36:44.714Z,569.8
2022-09-01T08:37:47.222Z,570.2
2022-09-01T08:38:49.423Z,570
2022-09-01T08:39:51.920Z,570.3
2022-09-01T08:42:00.347Z,570.2
2022-09-01T08:43:03.647Z,570.5
2022-09-01T08:44:06.145Z,570.3
2022-09-01T08:45:07.835Z,570.5
2022-09-01T08:46:10.445Z,570.4
2022-09-01T08:49:54.768Z,569.8
2022-09-01T08:50:57.113Z,569.9
2022-09-01T08:52:01.617Z,569.9
2022-09-01T08:54:08.836Z,569.5
2022-09-01T08:55:11.025Z,570
2022-09-01T08:56:13.241Z,570.3
2022-09-01T08:57:15.416Z,569.9
2022-09-01T08:58:18.590Z,569.6
2022-09-01T08:59:21.135Z,569.8
2022-09-01T09:00:23.847Z,569.9
2022-09-01T09:01:26.324Z,569.9
2022-09-01T09:02:28.897Z,570
2022-09-01T09:04:36.409Z,569.9
2022-09-01T09:05:38.912Z,570.1
2022-09-01T09:06:41.126Z,570.3
2022-09-01T09:07:43.045Z,569.9
2022-09-01T09:08:45.268Z,570
2022-09-01T09:10:53.615Z,570
2022-09-01T09:11:56.061Z,569.7
2022-09-01T09:12:58.016Z,570.2
2022-09-01T09:14:00.225Z,569.9
2022-09-01T09:15:01.905Z,569.9
2022-09-01T09:17:09.090Z,569.9
2022-09-01T09:19:16.833Z,569.3
2022-09-01T09:21:25.284Z,569.9
2022-09-01T09:22:27.226Z,569.8
2022-09-01T09:23:29.429Z,570
2022-09-01T09:25:36.602Z,569.5
2022-09-01T09:27:44.372Z,569.6
2022-09-01T09:28:46.562Z,569.6
2022-09-01T09:29:48.471Z,569.4
2022-09-01T09:30:50.992Z,569.6
2022-09-01T09:31:54.149Z,569.6
2022-09-01T09:34:02.591Z,569.7
2022-09-01T09:35:04.824Z,569.5
2022-09-01T09:36:07.297Z,569.6
2022-09-01T09:37:09.766Z,569.7
2022-09-01T09:38:13.788Z,569.7
2022-09-01T09:39:18.787Z,570.1
2022-09-01T09:40:22.249Z,569.6
2022-09-01T09:43:34.863Z,570
2022-09-01T09:44:37.331Z,569.9
2022-09-01T09:46:46.178Z,570.3
2022-09-01T09:47:49.546Z,570.4
2022-09-01T09:48:52.917Z,570.3
2022-09-01T09:49:55.120Z,570.4
2022-09-01T09:50:57.699Z,570.5
2022-09-01T09:52:00.829Z,570.9
2022-09-01T09:53:03.321Z,571
2022-09-01T09:54:05.574Z,570.7
2022-09-01T09:55:07.759Z,570.7
2022-09-01T09:56:10.257Z,570.8
2022-09-01T09:57:12.460Z,570.9
2022-09-01T09:58:14.363Z,570.3
2022-09-01T09:59:16.567Z,570.6
2022-09-01T10:01:26.809Z,570.7
2022-09-01T10:02:30.187Z,570.5
2022-09-01T10:03:32.844Z,570.3
2022-09-01T10:04:35.544Z,570.1
2022-09-01T10:05:38.457Z,570.6
2022-09-01T10:06:40.822Z,570.7
2022-09-01T10:07:43.061Z,570.2
2022-09-01T10:08:47.171Z,570.7
2022-09-01T10:09:49.629Z,570.5
2022-09-01T10:11:58.061Z,570.5
2022-09-01T10:13:02.575Z,570.6
2022-09-01T10:14:05.291Z,571
2022-09-01T10:16:13.112Z,571.3
2022-09-01T10:17:18.386Z,570.9
2022-09-01T10:19:26.774Z,571.5
2022-09-01T10:20:29.261Z,571.7
2022-09-01T10:22:37.332Z,571.2
2022-09-01T10:25:50.336Z,571.5
2022-09-01T10:26:53.005Z,571.7
2022-09-01T10:29:03.296Z,572.4
2022-09-01T10:31:11.536Z,572.2
2022-09-01T10:35:29.345Z,571.8
2022-09-01T10:36:31.536Z,571.9
2022-09-01T10:37:34.031Z,572.2
2022-09-01T10:38:36.531Z,572
2022-09-01T10:42:57.927Z,572.1
2022-09-01T10:44:03.921Z,572.3
2022-09-01T10:45:07.405Z,571.7
2022-09-01T10:47:19.375Z,572.1
2022-09-01T10:52:44.277Z,572.2
2022-09-01T10:53:52.934Z,572.5
2022-09-01T11:04:09.341Z,572.5
2022-09-01T11:05:12.049Z,572.7
2022-09-01T11:06:15.229Z,572.9
2022-09-01T11:07:29.846Z,572.7
2022-09-01T11:08:24.873Z,572.9
2022-09-01T11:09:27.342Z,572.6
2022-09-01T11:11:34.889Z,573.1
2022-09-01T11:12:37.974Z,573.1
2022-09-01T11:13:40.700Z,573.2
2022-09-01T11:14:43.181Z,573.1
2022-09-01T11:15:47.048Z,572.9
2022-09-01T11:17:54.536Z,573
2022-09-01T11:18:57.022Z,573.3
2022-09-01T11:19:59.499Z,573.1
2022-09-01T11:21:01.750Z,573
2022-09-01T11:22:04.639Z,573.1
2022-09-01T11:23:09.385Z,573.3
2022-09-01T11:24:12.895Z,573.4
2022-09-01T11:25:15.432Z,573.1
2022-09-01T11:27:24.218Z,573
2022-09-01T11:28:26.994Z,573.2
2022-09-01T11:29:29.743Z,573.5
2022-09-01T11:30:33.132Z,573.9
2022-09-01T11:31:36.054Z,574.1
2022-09-01T11:32:38.548Z,573.9
2022-09-01T11:33:40.557Z,574.1
2022-09-01T11:34:43.734Z,573.7
2022-09-01T11:35:46.247Z,573.9
2022-09-01T11:36:50.401Z,574.4
2022-09-01T11:37:55.116Z,574.3
2022-09-01T11:38:57.628Z,574.3
2022-09-01T11:39:59.569Z,574.2
2022-09-01T11:41:01.916Z,574
2022-09-01T11:42:06.564Z,574.2
2022-09-01T11:44:14.590Z,574.5
2022-09-01T11:46:22.642Z,573.8
2022-09-01T11:47:25.158Z,574
2022-09-01T11:48:27.636Z,574.3
2022-09-01T11:49:29.831Z,574.3
2022-09-01T11:50:32.311Z,574.2
2022-09-01T11:51:34.787Z,574.4
2022-09-01T11:52:37.272Z,574.4
2022-09-01T11:53:39.458Z,574.5
2022-09-01T11:54:41.654Z,574.2
2022-09-01T11:55:43.592Z,574.1
2022-09-01T11:56:45.492Z,574.6
2022-09-01T11:57:47.969Z,574.3
2022-09-01T11:58:50.441Z,574.3
2022-09-01T11:59:52.914Z,574.3
2022-09-01T12:00:55.140Z,574.7
2022-09-01T12:01:58.215Z,574.2
2022-09-01T12:03:01.239Z,574.5
2022-09-01T12:04:03.524Z,574.4
2022-09-01T12:05:06.021Z,574.6
2022-09-01T12:06:08.491Z,574.3
2022-09-01T12:07:13.002Z,574.2
2022-09-01T12:08:15.231Z,574.4
2022-09-01T12:09:17.723Z,574.9
2022-09-01T12:10:20.191Z,574.7
2022-09-01T12:11:22.392Z,575.1
2022-09-01T12:12:24.875Z,574.7
2022-09-01T12:13:27.348Z,574.8
2022-09-01T12:15:34.818Z,575.3
2022-09-01T12:16:37.352Z,575.4
2022-09-01T12:17:39.841Z,575.2
2022-09-01T12:18:42.090Z,575.8
2022-09-01T12:19:44.317Z,575.6
2022-09-01T12:20:46.644Z,575.4
2022-09-01T12:22:57.564Z,576
2022-09-01T12:23:59.745Z,575.6
2022-09-01T12:25:02.244Z,575.7
2022-09-01T12:26:04.440Z,575.7
2022-09-01T12:27:06.695Z,575.9
2022-09-01T12:29:14.159Z,576.4
2022-09-01T12:30:16.640Z,575.8
2022-09-01T12:31:19.172Z,575.9
2022-09-01T12:32:21.900Z,575.4
2022-09-01T12:33:26.504Z,575.4
2022-09-01T12:34:28.730Z,575.6
2022-09-01T12:35:31.200Z,575.5
2022-09-01T12:36:34.098Z,575.3
2022-09-01T12:37:36.598Z,575.3
2022-09-01T12:38:38.225Z,575.6
2022-09-01T12:39:40.699Z,575.3
2022-09-01T12:40:43.139Z,575.6
2022-09-01T12:41:45.375Z,575.7
2022-09-01T12:42:47.850Z,575.6
2022-09-01T12:44:55.320Z,575.7
2022-09-01T12:45:57.811Z,576.1
2022-09-01T12:47:00.313Z,576.2
2022-09-01T12:48:02.246Z,576
2022-09-01T12:49:04.748Z,576
2022-09-01T12:50:07.338Z,576
2022-09-01T12:51:11.173Z,576.2
2022-09-01T12:53:19.569Z,576.1
2022-09-01T12:54:23.056Z,575.6
2022-09-01T12:56:30.546Z,576
2022-09-01T12:57:32.749Z,576
2022-09-01T12:58:34.947Z,576.1
2022-09-01T12:59:39.508Z,575.9
2022-09-01T13:00:41.916Z,575.5
2022-09-01T13:01:44.807Z,576
2022-09-01T13:02:48.370Z,575.9
2022-09-01T13:03:51.004Z,575.9
2022-09-01T13:04:53.207Z,576.1
2022-09-01T13:05:55.706Z,575.5
2022-09-01T13:06:59.031Z,576.1
2022-09-01T13:08:01.364Z,576.1
2022-09-01T13:09:03.618Z,575.9
2022-09-01T13:10:07.815Z,575.6
2022-09-01T13:11:12.381Z,575.6
2022-09-01T13:12:14.590Z,576.3
2022-09-01T13:13:17.111Z,576.5
2022-09-01T13:14:19.649Z,576.2
2022-09-01T13:15:21.600Z,576.3
2022-09-01T13:16:24.465Z,576.4
2022-09-01T13:17:27.612Z,576.2
2022-09-01T13:18:29.982Z,576.1
2022-09-01T13:19:32.418Z,576.5
2022-09-01T13:20:34.915Z,576.1
2022-09-01T13:22:39.553Z,576.5
2022-09-01T13:23:42.041Z,576.7
2022-09-01T13:24:44.255Z,576.5
2022-09-01T13:25:46.870Z,576.2
2022-09-01T13:27:54.348Z,576.3
2022-09-01T13:28:56.827Z,576.5
2022-09-01T13:29:59.525Z,576.5
2022-09-01T13:35:21.994Z,576.9
2022-09-01T13:37:29.467Z,576.6
2022-09-01T13:38:31.935Z,576.4
2022-09-01T13:39:34.425Z,576.2
2022-09-01T13:40:37.115Z,575.8
2022-09-01T13:41:39.598Z,576
2022-09-01T13:42:42.144Z,576.2
2022-09-01T13:43:45.432Z,576.8
2022-09-01T13:45:53.603Z,576.9
2022-09-01T13:52:21.102Z,576.5
2022-09-01T13:53:23.573Z,577.5
2022-09-01T13:54:25.774Z,577
2022-09-01T13:55:28.256Z,577.5
2022-09-01T13:56:30.467Z,577.5
2022-09-01T13:58:37.939Z,577.3
2022-09-01T13:59:39.586Z,577.8
2022-09-01T14:00:42.070Z,577.5
2022-09-01T14:01:44.544Z,577.9
2022-09-01T14:02:47.034Z,577.6
2022-09-01T14:04:54.651Z,577.9
2022-09-01T14:05:57.155Z,577.9
2022-09-01T14:07:00.481Z,578
2022-09-01T14:08:02.689Z,578
2022-09-01T14:09:05.167Z,578.4
2022-09-01T14:10:07.665Z,578.5
2022-09-01T14:11:10.152Z,578.3
2022-09-01T14:12:12.624Z,578.7
2022-09-01T14:13:15.111Z,578.7
2022-09-01T14:14:17.011Z,578.3
2022-09-01T14:16:24.832Z,578.7
2022-09-01T14:17:26.787Z,578.8
2022-09-01T14:18:29.282Z,578.6
2022-09-01T14:19:31.483Z,578.4
2022-09-01T14:21:38.958Z,578.6
2022-09-01T14:22:40.880Z,578.3
2022-09-01T14:23:43.363Z,578.7
2022-09-01T14:24:45.853Z,578.9
2022-09-01T14:25:48.347Z,578.7
2022-09-01T14:26:50.820Z,579.1
2022-09-01T14:27:54.224Z,579.7
2022-09-01T14:28:56.801Z,579.8
2022-09-01T14:29:59.436Z,579.4
2022-09-01T14:31:01.375Z,580
2022-09-01T14:32:03.864Z,579.4
2022-09-01T14:33:06.076Z,579.7
2022-09-01T14:34:08.330Z,580.2
2022-09-01T14:35:10.562Z,579.7
2022-09-01T14:37:17.237Z,580.1
2022-09-01T14:38:20.269Z,580.6
2022-09-01T14:39:22.574Z,580.5
2022-09-01T14:40:25.553Z,580.4
2022-09-01T14:41:28.962Z,580.2
2022-09-01T14:42:31.172Z,580.4
2022-09-01T14:43:33.421Z,580.6
2022-09-01T14:44:35.905Z,580.7
2022-09-01T14:45:38.127Z,580.9
2022-09-01T14:46:40.849Z,580.6
2022-09-01T14:47:44.456Z,581.1
2022-09-01T14:48:46.926Z,580.8
2022-09-01T14:49:49.422Z,580.8
2022-09-01T14:50:51.621Z,580.7
2022-09-01T14:53:02.516Z,580.5
2022-09-01T14:54:04.990Z,581.2
2022-09-01T14:55:08.089Z,580.6
2022-09-01T14:56:10.320Z,580.6
2022-09-01T14:58:17.801Z,580.9
2022-09-01T14:59:20.014Z,580.7
2022-09-01T15:00:22.230Z,581.1
2022-09-01T15:02:29.740Z,580.7
2022-09-01T15:03:31.952Z,580.4
2022-09-01T15:04:34.661Z,580.8
2022-09-01T15:06:41.883Z,581.1
2022-09-01T15:07:44.084Z,581.6
2022-09-01T15:08:46.559Z,581.6
2022-09-01T15:09:49.041Z,581.3
2022-09-01T15:10:51.255Z,581.5
2022-09-01T15:11:53.735Z,581.8
2022-09-01T15:12:55.955Z,582.1
2022-09-01T15:13:58.164Z,581.6
2022-09-01T15:15:00.656Z,582.1
2022-09-01T15:16:03.752Z,582.3
2022-09-01T15:17:06.038Z,581.6
2022-09-01T15:18:08.516Z,581.7
2022-09-01T15:19:10.990Z,581.8
2022-09-01T15:20:13.469Z,581.8
2022-09-01T15:21:15.684Z,581.5
2022-09-01T15:22:18.171Z,581.1
2022-09-01T15:23:20.667Z,581
2022-09-01T15:24:23.153Z,580.8
2022-09-01T15:25:25.649Z,581
2022-09-01T15:26:28.140Z,581.5
2022-09-01T15:27:30.349Z,581.4
2022-09-01T15:28:32.556Z,581.3
2022-09-01T15:29:34.497Z,580.9
2022-09-01T15:30:36.698Z,581.3
2022-09-01T15:31:38.949Z,581.6
2022-09-01T15:32:41.178Z,581.7
2022-09-01T15:33:43.546Z,581.9
2022-09-01T15:35:55.838Z,581.4
2022-09-01T15:36:58.234Z,581.4
2022-09-01T15:38:00.438Z,581.6
2022-09-01T15:39:02.642Z,581.8
2022-09-01T15:40:04.851Z,581.4
2022-09-01T15:41:07.734Z,582
2022-09-01T15:42:10.230Z,582
2022-09-01T15:43:12.832Z,581.6
2022-09-01T15:44:14.524Z,581.8
2022-09-01T15:45:16.722Z,581.8
2022-09-01T15:46:18.991Z,581.7
2022-09-01T15:47:21.482Z,581.9
2022-09-01T15:48:23.980Z,581.9
2022-09-01T15:49:26.461Z,581.9
2022-09-01T15:50:29.475Z,581.9
2022-09-01T15:51:32.592Z,582.3
2022-09-01T15:52:35.073Z,582.2
2022-09-01T15:53:37.551Z,582.2
2022-09-01T15:54:40.058Z,582
2022-09-01T15:55:42.251Z,582.2
2022-09-01T15:56:44.726Z,582.2
2022-09-01T15:57:47.723Z,581.8
2022-09-01T15:59:54.970Z,582
2022-09-01T16:00:57.798Z,582.4
2022-09-01T16:02:00.779Z,582.5
2022-09-01T16:03:03.417Z,582.2
2022-09-01T16:04:06.905Z,582.6
2022-09-01T16:05:09.382Z,582.4
2022-09-01T16:06:11.588Z,582.5
2022-09-01T16:07:13.506Z,582.9
2022-09-01T16:08:15.599Z,583
2022-09-01T16:09:17.797Z,582.7
2022-09-01T16:10:19.980Z,582.6
2022-09-01T16:11:22.478Z,582.7
2022-09-01T16:12:25.131Z,582.3
2022-09-01T16:13:27.609Z,582.4
2022-09-01T16:14:30.113Z,582.1
2022-09-01T16:15:32.327Z,582.1
2022-09-01T16:17:39.370Z,582
2022-09-01T16:18:41.856Z,582.1
2022-09-01T16:19:44.336Z,581.8
2022-09-01T16:20:46.830Z,581.9
2022-09-01T16:21:49.371Z,582
2022-09-01T16:22:51.843Z,581.8
2022-09-01T16:23:54.320Z,581.3
2022-09-01T16:24:56.271Z,581.6